Stations météo

réclame
Mon MeteoGroup
Trento, Italie (16023): Température de l'air & dewpoint: 19.09.2018 11:00:00 - 25.09.2018 11:00:00 (CEST)Trento, Italie (16023): Vitesse du vent: 19.09.2018 11:00:00 - 25.09.2018 11:00:00 (CEST)Trento, Italie (16023): Direction du vent: 19.09.2018 11:00:00 - 25.09.2018 11:00:00 (CEST)Trento, Italie (16023): reduced air pressure: 19.09.2018 11:00:00 - 25.09.2018 11:00:00 (CEST)Trento, Italie (16023): Quantités de précipitations: 19.09.2018 11:00:00 - 25.09.2018 11:00:00 (CEST)
Date & Time tt [°C] td [°C] ff [km/h] ff [knt] dd ppp [hPa] rr [mm]
25.09.2018 11:00:00 - - - - - - -
25.09.2018 10:00:00 13,1 -0,3 11 6 NNE 1033,8 -
25.09.2018 09:00:00 9,8 3,2 4 2 E 1033,6 -
25.09.2018 08:00:00 8,0 0,4 0 0 N 1033,6 0,0
25.09.2018 07:00:00 7,7 0,1 2 1 NNW 1033,2 -
25.09.2018 06:00:00 8,5 0,9 4 2 NW 1032,8 -
25.09.2018 05:00:00 8,6 -0,8 4 2 NNE 1032,4 -
25.09.2018 04:00:00 9,8 -0,8 4 2 NE 1031,9 -
25.09.2018 03:00:00 10,6 -0,1 5 3 ENE 1031,4 -
25.09.2018 02:00:00 11,7 -2,3 4 2 NE 1031,0 0,0
25.09.2018 01:00:00 10,8 -1,1 5 3 NE 1030,5 -
25.09.2018 00:00:00 12,2 -1,5 9 5 ENE 1029,9 -
24.09.2018 23:00:00 16,2 -1,1 11 6 E 1029,0 -
24.09.2018 22:00:00 15,2 -4,3 9 5 NNE 1027,7 -
24.09.2018 21:00:00 17,9 -3,6 13 7 N 1026,0 -
24.09.2018 20:00:00 18,6 -3,6 9 5 N 1024,5 0,0
24.09.2018 19:00:00 20,8 -3,7 13 7 NW 1023,3 -
24.09.2018 18:00:00 23,1 -4,1 21 11 NE 1022,2 -
24.09.2018 17:00:00 24,2 -3,2 16 9 NNE 1021,4 -
24.09.2018 16:00:00 25,1 -2,5 21 11 N 1020,8 -
24.09.2018 15:00:00 25,2 -2,4 22 12 N 1020,8 -
24.09.2018 14:00:00 24,9 -1,8 11 6 NNW 1020,8 0,0
24.09.2018 13:00:00 24,7 -1,2 21 11 NNE 1020,5 -
24.09.2018 12:00:00 24,0 0,3 21 11 NNE 1019,7 -
24.09.2018 11:00:00 23,7 0,7 28 15 NNE 1019,0 -
24.09.2018 10:00:00 23,0 1,9 24 13 NNW 1017,7 -
24.09.2018 09:00:00 21,3 3,0 35 19 NNW 1016,0 -
24.09.2018 08:00:00 20,1 5,6 18 10 NNE 1014,4 0,0
24.09.2018 07:00:00 19,8 7,8 11 6 NNE 1013,0 -
24.09.2018 06:00:00 21,2 9,7 21 11 NW 1012,0 -
24.09.2018 05:00:00 21,7 14,7 13 7 N 1011,0 -
24.09.2018 04:00:00 20,4 16,6 8 4 NE 1010,7 -
24.09.2018 03:00:00 20,3 16,3 5 3 ESE 1010,4 -
24.09.2018 02:00:00 20,8 15,9 2 1 W 1009,9 0,0
24.09.2018 01:00:00 20,8 16,1 9 5 NNW 1009,6 -
24.09.2018 00:00:00 20,6 15,3 2 1 NE 1010,3 -
23.09.2018 23:00:00 22,1 15,6 11 6 NNW 1011,6 -
23.09.2018 22:00:00 23,4 15,9 13 7 SSW 1011,7 -
23.09.2018 21:00:00 24,7 16,1 26 14 S 1011,6 -
23.09.2018 20:00:00 25,2 16,3 34 18 S 1011,8 0,0
23.09.2018 19:00:00 24,8 16,7 5 3 E 1012,4 -
23.09.2018 18:00:00 25,9 16,9 31 17 SSW 1012,3 -
23.09.2018 17:00:00 27,3 17,1 28 15 S 1012,9 -
23.09.2018 16:00:00 27,1 16,9 35 19 SW 1013,6 -
23.09.2018 15:00:00 27,5 17,6 29 16 SSW 1014,7 -
23.09.2018 14:00:00 27,0 17,1 22 12 S 1016,0 0,0
23.09.2018 13:00:00 26,3 18,4 9 5 S 1016,7 -
23.09.2018 12:00:00 25,1 18,0 2 1 ENE 1017,7 -
23.09.2018 11:00:00 23,4 17,5 0 0 N 1018,4 -
23.09.2018 10:00:00 21,8 16,9 5 3 SSW 1018,5 -
23.09.2018 09:00:00 20,7 16,0 4 2 NNW 1018,4 -
23.09.2018 08:00:00 20,1 16,1 5 3 WNW 1018,1 0,0
23.09.2018 07:00:00 20,2 15,8 0 0 N 1017,7 -
23.09.2018 06:00:00 20,3 16,1 4 2 W 1017,4 -
23.09.2018 05:00:00 20,0 16,4 0 0 N 1017,3 -
23.09.2018 04:00:00 19,8 16,0 2 1 E 1017,3 -
23.09.2018 03:00:00 20,6 16,4 2 1 S 1017,5 -
23.09.2018 02:00:00 21,7 16,6 0 0 N 1017,7 0,0
23.09.2018 01:00:00 21,5 15,9 5 3 NNW 1017,3 -
23.09.2018 00:00:00 23,0 15,5 4 2 SSE 1017,1 -
22.09.2018 23:00:00 23,8 16,0 4 2 SSW 1017,1 -
22.09.2018 22:00:00 24,3 16,2 8 4 SE 1016,7 -
22.09.2018 21:00:00 24,3 17,5 8 4 S 1016,4 -
22.09.2018 20:00:00 25,0 17,6 9 5 SE 1015,9 0,0
22.09.2018 19:00:00 24,9 16,8 0 0 N 1015,6 -
22.09.2018 18:00:00 26,1 16,8 5 3 NNW 1014,9 -
22.09.2018 17:00:00 26,3 17,3 9 5 WNW 1015,0 -
22.09.2018 16:00:00 26,1 16,3 8 4 SSE 1015,2 -
22.09.2018 15:00:00 26,7 15,7 2 1 W 1015,3 -
22.09.2018 14:00:00 25,6 16,7 8 4 WNW 1015,9 0,0
22.09.2018 13:00:00 24,7 16,3 9 5 NW 1016,5 -
22.09.2018 12:00:00 22,9 16,4 5 3 NNW 1017,1 -
22.09.2018 11:00:00 21,2 15,9 2 1 SSE 1017,1 -
22.09.2018 10:00:00 20,1 16,1 5 3 NW 1016,8 -
22.09.2018 09:00:00 18,3 15,5 2 1 W 1016,7 -
22.09.2018 08:00:00 17,0 14,8 4 2 E 1015,9 0,0
22.09.2018 07:00:00 16,6 14,0 2 1 NW 1015,4 -
22.09.2018 06:00:00 16,7 13,9 2 1 SE 1014,8 -
22.09.2018 05:00:00 17,4 14,2 9 5 W 1014,7 -
22.09.2018 04:00:00 17,4 13,8 2 1 ENE 1014,3 -
22.09.2018 03:00:00 18,3 14,3 0 0 N 1014,4 -
22.09.2018 02:00:00 18,5 14,5 9 5 W 1014,5 0,0
22.09.2018 01:00:00 19,7 14,9 2 1 WSW 1014,6 -
22.09.2018 00:00:00 20,5 14,5 2 1 N 1014,3 -
21.09.2018 23:00:00 22,5 15,0 2 1 N 1014,6 -
21.09.2018 22:00:00 23,8 14,7 16 9 SW 1014,1 -
21.09.2018 21:00:00 24,6 15,2 9 5 SSE 1013,8 -
21.09.2018 20:00:00 26,1 15,1 13 7 S 1012,9 0,0
21.09.2018 19:00:00 27,4 14,0 21 11 S 1012,5 -
21.09.2018 18:00:00 28,9 14,3 16 9 S 1012,5 -
21.09.2018 17:00:00 30,3 15,2 15 8 SSE 1012,4 -
21.09.2018 16:00:00 30,4 15,6 21 11 S 1012,6 -
21.09.2018 15:00:00 30,0 16,4 21 11 SSW 1013,2 -
21.09.2018 14:00:00 27,9 15,2 2 1 WSW 1014,6 0,0
21.09.2018 13:00:00 26,7 15,0 4 2 NNW 1015,6 -
21.09.2018 12:00:00 24,7 15,3 2 1 ESE 1016,5 -
21.09.2018 11:00:00 22,3 14,8 4 2 ENE 1017,3 -
21.09.2018 10:00:00 20,0 15,6 4 2 NNE 1018,1 -
21.09.2018 09:00:00 17,1 15,6 2 1 ESE 1018,6 -
21.09.2018 08:00:00 15,2 13,5 2 1 NE 1019,0 0,0
21.09.2018 07:00:00 14,8 12,9 2 1 ENE 1018,6 -
21.09.2018 06:00:00 15,3 13,4 2 1 ENE 1018,7 -
21.09.2018 05:00:00 15,6 13,6 4 2 ENE 1018,8 -
21.09.2018 04:00:00 16,1 13,9 2 1 ENE - -
21.09.2018 03:00:00 16,6 14,0 2 1 NNE 1019,0 -
21.09.2018 02:00:00 17,4 14,4 4 2 ENE 1019,2 0,0
21.09.2018 01:00:00 18,0 14,8 4 2 E 1019,0 -
21.09.2018 00:00:00 18,9 15,1 4 2 E 1019,2 -
20.09.2018 23:00:00 19,5 15,1 0 0 N 1018,9 -
20.09.2018 22:00:00 20,4 15,5 2 1 NW 1018,5 -
20.09.2018 21:00:00 22,0 15,0 2 1 NNW 1018,1 -
20.09.2018 20:00:00 23,9 15,1 5 3 N 1017,4 0,0
20.09.2018 19:00:00 26,0 15,0 4 2 NW 1016,8 -
20.09.2018 18:00:00 28,8 14,9 4 2 SW 1016,4 -
20.09.2018 17:00:00 30,5 14,1 8 4 NNW 1016,5 -
20.09.2018 16:00:00 30,1 14,6 11 6 W 1016,9 -
20.09.2018 15:00:00 29,2 13,8 5 3 SW 1017,7 -
20.09.2018 14:00:00 28,3 14,5 4 2 E 1018,8 0,0
20.09.2018 13:00:00 26,7 13,4 8 4 NW 1019,7 -
20.09.2018 12:00:00 25,1 14,5 11 6 NW 1020,8 -
20.09.2018 11:00:00 22,2 13,5 11 6 NNW 1021,8 -
20.09.2018 10:00:00 20,7 14,0 9 5 NNW 1022,2 -
20.09.2018 09:00:00 17,6 15,9 4 2 WNW 1022,5 -
20.09.2018 08:00:00 15,3 13,4 0 0 N 1022,6 0,0
20.09.2018 07:00:00 14,9 13,0 4 2 E 1022,3 -
20.09.2018 06:00:00 15,2 13,3 4 2 ESE 1022,2 -
20.09.2018 05:00:00 15,7 13,6 2 1 N 1022,0 -
20.09.2018 04:00:00 16,2 14,0 0 0 N 1021,9 -
20.09.2018 03:00:00 16,5 14,1 5 3 E 1022,0 -
20.09.2018 02:00:00 17,2 14,6 2 1 E 1022,1 0,0
20.09.2018 01:00:00 17,8 15,2 4 2 N 1021,9 -
20.09.2018 00:00:00 18,2 15,0 4 2 NW 1021,9 -
19.09.2018 23:00:00 19,0 15,2 0 0 N 1021,6 -
19.09.2018 22:00:00 19,6 15,2 2 1 E 1021,0 -
19.09.2018 21:00:00 20,6 15,3 0 0 N 1020,2 -
19.09.2018 20:00:00 22,3 15,3 2 1 E 1019,3 0,0
19.09.2018 19:00:00 24,9 14,6 4 2 W 1018,4 -
19.09.2018 18:00:00 28,4 15,3 2 1 NW 1017,5 -
19.09.2018 17:00:00 30,0 14,9 9 5 W 1017,4 -
19.09.2018 16:00:00 29,9 14,8 4 2 SSE 1017,8 -
19.09.2018 15:00:00 28,8 14,6 0 0 N 1018,3 -
19.09.2018 14:00:00 27,3 14,9 4 2 W 1019,0 0,0
19.09.2018 13:00:00 25,5 13,9 2 1 W 1019,9 -
19.09.2018 12:00:00 24,0 14,6 4 2 N 1020,7 -
19.09.2018 11:00:00 22,3 14,6 5 3 N 1021,7 -

tt = Température de l'air
td = dewpoint
ff = Vitesse du vent
dd = Direction du vent
ppp = reduced air pressure
rr = Quantités de précipitations

stations d'obs. à proximité